Veronica B — 5BUT4 — position and weather

sailwx.info

Track history (hours):
 
Tides and Currents Weather Stations Pressure Air Temp Water Temp Dewpoint Dewpoint Depression Visibility Wind Speed Wind Dir Waves Ship Positions

Veronica B

Last reported at 2017-Sep-22 02:00 UTC. Time now 2017-Sep-22 20:53 UTC.
Position N 43°33' W 003°25'.

Length 158 m; draft 7.3 m.

Type: Ship (hazmat cat A). MMSI: 209103000.

Date/timePositionNaut miles runAvg speedWind from/ knotsBaromVisibWave heightAir tempDewpointWater temp
2017-Sep-22 02:00N 43°33' W 003°25'64 9.4
2017-Sep-21 19:10N 43°39' W 004°53'5 9.6
2017-Sep-21 18:41N 43°41' W 004°59'2 9.4
2017-Sep-21 18:30N 43°41' W 005°01'6 9.4
2017-Sep-21 17:50N 43°42' W 005°10'5 9.4
2017-Sep-21 17:21N 43°43' W 005°16'3 9.5
2017-Sep-21 17:00N 43°43' W 005°20'5 9.6
2017-Sep-21 16:30N 43°44' W 005°27'30 9.5
2017-Sep-21 13:18N 43°47' W 006°09'  
2017-Sep-19 07:52N 39°35' W 010°29'3 9.4
2017-Sep-19 07:30N 39°32' W 010°31'2511.8
2017-Sep-19 05:24N 39°08' W 010°41'6 9.6
2017-Sep-19 04:45N 39°02' W 010°44'3 9.5
2017-Sep-19 04:26N 38°60' W 010°45'5 9.5
2017-Sep-19 03:58N 38°55' W 010°47'9 9.6
2017-Sep-19 03:03N 38°47' W 010°50'0 9.8
2017-Sep-19 03:00N 38°47' W 010°50'7 9.8
2017-Sep-19 02:17N 38°40' W 010°53'410.0
2017-Sep-19 01:54N 38°36' W 010°55'410.1
2017-Sep-19 01:28N 38°32' W 010°57'510.1
2017-Sep-19 00:58N 38°27' W 010°59'20 9.9
2017-Sep-18 23:00N 38°09' W 011°07'3810.3
2017-Sep-18 19:18N 37°33' W 011°23'510.0
2017-Sep-18 18:47N 37°28' W 011°25'410.1
2017-Sep-18 18:26N 37°25' W 011°26'50410.7
2017-Sep-16 19:08N 29°08' W 013°08'110.9
2017-Sep-16 19:00N 29°07' W 013°10'510.7
2017-Sep-16 18:30N 29°04' W 013°15'510.9
2017-Sep-16 18:00N 29°02' W 013°20'611.0
2017-Sep-16 17:30N 28°59' W 013°26'5 9.9
2017-Sep-16 17:00N 28°57' W 013°31'1 2.1
2017-Sep-16 16:30N 28°58' W 013°32'0 0.0
2017-Sep-16 16:00N 28°58' W 013°32'0 0.0
2017-Sep-16 15:30N 28°58' W 013°32'0 0.0
2017-Sep-16 15:00N 28°58' W 013°32'0 0.0
2017-Sep-16 14:30N 28°58' W 013°32'0 0.0
2017-Sep-16 14:00N 28°58' W 013°32'0 0.0
2017-Sep-16 13:30N 28°58' W 013°32'0 0.0
2017-Sep-16 13:00N 28°58' W 013°32'0 0.0
2017-Sep-16 12:30N 28°58' W 013°32'0 0.0
2017-Sep-16 12:00N 28°58' W 013°32'0 0.0
2017-Sep-16 11:30N 28°58' W 013°32'0 0.0
2017-Sep-16 11:00N 28°58' W 013°32'0 0.0
2017-Sep-16 10:29N 28°58' W 013°32'0 0.0
2017-Sep-16 09:55N 28°58' W 013°32'0 0.0
2017-Sep-16 09:29N 28°58' W 013°32'0 0.0
2017-Sep-16 08:59N 28°58' W 013°32'0 0.0
2017-Sep-16 08:30N 28°58' W 013°32'0 0.0
2017-Sep-16 08:00N 28°58' W 013°32'0 0.0
2017-Sep-16 07:30N 28°58' W 013°32'0 0.0
2017-Sep-16 07:00N 28°58' W 013°32'0 0.0
2017-Sep-16 06:30N 28°58' W 013°32'0 0.0
2017-Sep-16 06:00N 28°58' W 013°32'0 0.0
2017-Sep-16 05:30N 28°58' W 013°32'0 0.0
2017-Sep-16 05:00N 28°58' W 013°32'0 0.0
2017-Sep-16 04:30N 28°58' W 013°32'0 0.0
2017-Sep-16 04:00N 28°58' W 013°32'0 0.0
2017-Sep-16 03:30N 28°58' W 013°32'0 0.0
2017-Sep-16 03:00N 28°58' W 013°32'0 0.0
2017-Sep-16 02:30N 28°58' W 013°32'0 0.0
2017-Sep-16 01:58N 28°58' W 013°32'0 0.0
2017-Sep-16 01:30N 28°58' W 013°32'0 0.0
2017-Sep-16 01:00N 28°58' W 013°32'0 0.0
2017-Sep-16 00:30N 28°58' W 013°32'0 0.0
2017-Sep-16 00:00N 28°58' W 013°32'0 0.0
2017-Sep-15 23:30N 28°58' W 013°32'0 0.0
2017-Sep-15 23:00N 28°58' W 013°32'0 0.0
2017-Sep-15 22:30N 28°58' W 013°32'0 0.0
2017-Sep-15 22:00N 28°58' W 013°32'1 1.7
2017-Sep-15 21:30N 28°57' W 013°32'2 4.2
2017-Sep-15 21:00N 28°55' W 013°32'1 1.3
2017-Sep-15 20:30N 28°55' W 013°32'3 5.9
2017-Sep-15 20:00N 28°53' W 013°35'611.5
2017-Sep-15 19:30N 28°48' W 013°38'611.5
2017-Sep-15 19:00N 28°43' W 013°41'611.7
2017-Sep-15 18:30N 28°38' W 013°45'612.0
2017-Sep-15 18:00N 28°32' W 013°48'4 7.5
2017-Sep-15 17:29N 28°30' W 013°51'0 0.0
2017-Sep-15 17:00N 28°30' W 013°51'0 0.0
2017-Sep-15 16:23N 28°30' W 013°51'0 0.0
2017-Sep-15 15:54N 28°30' W 013°51'0 0.0
2017-Sep-15 15:30N 28°30' W 013°51'0 0.0
2017-Sep-15 14:59N 28°30' W 013°51'0 0.0
2017-Sep-15 14:30N 28°30' W 013°51'0 0.0
2017-Sep-15 13:45N 28°30' W 013°51'0 0.0
2017-Sep-15 13:20N 28°30' W 013°51'0 0.0
2017-Sep-15 12:59N 28°30' W 013°51'0 0.0
2017-Sep-15 12:30N 28°30' W 013°51'0 0.0
2017-Sep-15 12:00N 28°30' W 013°51'0 0.0
2017-Sep-15 11:30N 28°30' W 013°51'0 0.0
2017-Sep-15 11:00N 28°30' W 013°51'0 0.0
2017-Sep-15 10:30N 28°30' W 013°51'0 0.0
2017-Sep-15 09:59N 28°30' W 013°51'0 0.0
2017-Sep-15 09:30N 28°30' W 013°51'0 0.0
2017-Sep-15 09:00N 28°30' W 013°51'0 0.0
2017-Sep-15 08:30N 28°30' W 013°51'0 0.0
2017-Sep-15 07:58N 28°30' W 013°51'0 0.0
2017-Sep-15 07:30N 28°30' W 013°51'0 0.0
2017-Sep-15 06:53N 28°30' W 013°51'0 0.0
2017-Sep-15 06:30N 28°30' W 013°51'1 1.8
2017-Sep-15 06:00N 28°29' W 013°51'3 6.1
2017-Sep-15 05:30N 28°26' W 013°49'4 8.3
2017-Sep-15 05:00N 28°22' W 013°49'5 9.2
2017-Sep-15 04:30N 28°18' W 013°50'5 9.2
2017-Sep-15 04:00N 28°13' W 013°51'510.8
2017-Sep-15 03:30N 28°09' W 013°55'611.8
2017-Sep-15 03:00N 28°07' W 014°01'611.7
2017-Sep-15 02:30N 28°04' W 014°07'612.0
2017-Sep-15 02:00N 28°02' W 014°13'612.1
2017-Sep-15 01:30N 27°59' W 014°19'611.9
2017-Sep-15 01:00N 27°60' W 014°26'611.7
2017-Sep-15 00:30N 28°00' W 014°33'612.1
2017-Sep-15 00:00N 28°01' W 014°40'611.9
2017-Sep-14 23:30N 28°01' W 014°46'612.1
2017-Sep-14 23:00N 28°02' W 014°53'612.4
2017-Sep-14 22:30N 28°03' W 015°00'612.4
2017-Sep-14 22:00N 28°04' W 015°07'612.5
2017-Sep-14 21:30N 28°05' W 015°14'612.6
2017-Sep-14 21:00N 28°06' W 015°21'4 7.7
2017-Sep-14 20:30N 28°09' W 015°25'0 0.6
2017-Sep-14 20:00N 28°09' W 015°25'0 0.0
2017-Sep-14 19:30N 28°09' W 015°25'0 0.0
2017-Sep-14 19:00N 28°09' W 015°25'0 0.0
2017-Sep-14 18:30N 28°09' W 015°25'0 0.0
2017-Sep-14 18:00N 28°09' W 015°25'0 0.0
2017-Sep-14 17:30N 28°09' W 015°25'0 0.0
2017-Sep-14 17:00N 28°09' W 015°25'0 0.0
2017-Sep-14 16:30N 28°09' W 015°25'0 0.0
2017-Sep-14 16:00N 28°09' W 015°25'0 0.0
2017-Sep-14 15:30N 28°09' W 015°25'0 0.0
2017-Sep-14 15:00N 28°09' W 015°25'0 0.0
2017-Sep-14 14:30N 28°09' W 015°25'0 0.0
2017-Sep-14 14:00N 28°09' W 015°25'0 0.0
2017-Sep-14 13:30N 28°09' W 015°25'0 0.0
2017-Sep-14 13:00N 28°09' W 015°25'0 0.0
2017-Sep-14 12:30N 28°09' W 015°25'0 0.0
2017-Sep-14 12:00N 28°09' W 015°25'0 0.0
2017-Sep-14 11:30N 28°09' W 015°25'0 0.0
2017-Sep-14 11:00N 28°09' W 015°25'0 0.0
2017-Sep-14 10:31N 28°09' W 015°25'0 0.0
2017-Sep-14 10:00N 28°09' W 015°25'0 0.0
2017-Sep-14 09:30N 28°09' W 015°25'0 0.0
2017-Sep-14 09:00N 28°09' W 015°25'0 0.0
2017-Sep-14 08:30N 28°09' W 015°25'0 0.0
2017-Sep-14 08:00N 28°09' W 015°25'0 0.0
2017-Sep-14 07:30N 28°09' W 015°25'0 0.0
2017-Sep-14 07:00N 28°09' W 015°25'0 0.0
2017-Sep-14 06:30N 28°09' W 015°25'0 0.0
2017-Sep-14 06:00N 28°09' W 015°25'0 0.0
2017-Sep-14 05:30N 28°09' W 015°25'0 0.0
2017-Sep-14 05:00N 28°09' W 015°25'0 0.0
2017-Sep-14 04:30N 28°09' W 015°25'0 0.0
2017-Sep-14 04:00N 28°09' W 015°25'0 0.0
2017-Sep-14 03:30N 28°09' W 015°25'0 0.0
2017-Sep-14 03:00N 28°09' W 015°25'0 0.0
2017-Sep-14 02:30N 28°09' W 015°25'0 0.0
2017-Sep-14 02:00N 28°09' W 015°25'0 0.0
2017-Sep-14 01:30N 28°09' W 015°25'0 0.0
2017-Sep-14 01:00N 28°09' W 015°25'0 0.0
2017-Sep-14 00:30N 28°09' W 015°25'2 3.6
2017-Sep-14 00:00N 28°07' W 015°24'611.4
2017-Sep-13 23:31N 28°13' W 015°25'816.7
2017-Sep-13 23:01N 28°14' W 015°34'816.5
2017-Sep-13 22:31N 28°16' W 015°43'816.4
2017-Sep-13 22:00N 28°17' W 015°53'815.2
2017-Sep-13 21:30N 28°20' W 016°01'714.0
2017-Sep-13 20:59N 28°24' W 016°07'8 0.8
2017-Sep-13 10:48N 28°29' W 016°14'1 1.9
2017-Sep-13 10:29N 28°29' W 016°14'4 7.4
2017-Sep-13 09:59N 28°28' W 016°10'916.7
2017-Sep-13 09:28N 28°27' W 015°60'715.4
2017-Sep-13 09:00N 28°30' W 015°53'815.7
2017-Sep-13 08:30N 28°36' W 015°46'815.3
2017-Sep-13 08:00N 28°43' W 015°42'815.6
2017-Sep-13 07:30N 28°50' W 015°38'915.5
2017-Sep-13 06:56N 28°57' W 015°33'3615.4
2017-Sep-13 04:36N 29°29' W 015°14'215.6
2017-Sep-13 04:30N 29°31' W 015°13'38615.8
2017-Sep-12 04:06N 35°12' W 011°39'216.0
2017-Sep-12 04:00N 35°13' W 011°38'815.7
2017-Sep-12 03:31N 35°20' W 011°34'815.7
2017-Sep-12 02:58N 35°28' W 011°29'716.0
2017-Sep-12 02:30N 35°34' W 011°25'  
Track history (hours):
 
Tides and Currents Weather Stations Pressure Air Temp Water Temp Dewpoint Dewpoint Depression Visibility Wind Speed Wind Dir Waves Ship Positions

Veronica B

Last reported at 2017-Sep-22 02:00 UTC. Time now 2017-Sep-22 20:53 UTC.
Position N 43°33' W 003°25'.

Length 158 m; draft 7.3 m.

Type: Ship (hazmat cat A). MMSI: 209103000.

Date/timePositionNaut miles runAvg speedWind from/ knotsBaromVisibWave heightAir tempDewpointWater temp
2017-Sep-22 02:00N 43°33' W 003°25'64 9.4
2017-Sep-21 19:10N 43°39' W 004°53'5 9.6
2017-Sep-21 18:41N 43°41' W 004°59'2 9.4
2017-Sep-21 18:30N 43°41' W 005°01'6 9.4
2017-Sep-21 17:50N 43°42' W 005°10'5 9.4
2017-Sep-21 17:21N 43°43' W 005°16'3 9.5
2017-Sep-21 17:00N 43°43' W 005°20'5 9.6
2017-Sep-21 16:30N 43°44' W 005°27'30 9.5
2017-Sep-21 13:18N 43°47' W 006°09'  
2017-Sep-19 07:52N 39°35' W 010°29'3 9.4
2017-Sep-19 07:30N 39°32' W 010°31'2511.8
2017-Sep-19 05:24N 39°08' W 010°41'6 9.6
2017-Sep-19 04:45N 39°02' W 010°44'3 9.5
2017-Sep-19 04:26N 38°60' W 010°45'5 9.5
2017-Sep-19 03:58N 38°55' W 010°47'9 9.6
2017-Sep-19 03:03N 38°47' W 010°50'0 9.8
2017-Sep-19 03:00N 38°47' W 010°50'7 9.8
2017-Sep-19 02:17N 38°40' W 010°53'410.0
2017-Sep-19 01:54N 38°36' W 010°55'410.1
2017-Sep-19 01:28N 38°32' W 010°57'510.1
2017-Sep-19 00:58N 38°27' W 010°59'20 9.9
2017-Sep-18 23:00N 38°09' W 011°07'3810.3
2017-Sep-18 19:18N 37°33' W 011°23'510.0
2017-Sep-18 18:47N 37°28' W 011°25'410.1
2017-Sep-18 18:26N 37°25' W 011°26'50410.7
2017-Sep-16 19:08N 29°08' W 013°08'110.9
2017-Sep-16 19:00N 29°07' W 013°10'510.7
2017-Sep-16 18:30N 29°04' W 013°15'510.9
2017-Sep-16 18:00N 29°02' W 013°20'611.0
2017-Sep-16 17:30N 28°59' W 013°26'5 9.9
2017-Sep-16 17:00N 28°57' W 013°31'1 2.1
2017-Sep-16 16:30N 28°58' W 013°32'0 0.0
2017-Sep-16 16:00N 28°58' W 013°32'0 0.0
2017-Sep-16 15:30N 28°58' W 013°32'0 0.0
2017-Sep-16 15:00N 28°58' W 013°32'0 0.0
2017-Sep-16 14:30N 28°58' W 013°32'0 0.0
2017-Sep-16 14:00N 28°58' W 013°32'0 0.0
2017-Sep-16 13:30N 28°58' W 013°32'0 0.0
2017-Sep-16 13:00N 28°58' W 013°32'0 0.0
2017-Sep-16 12:30N 28°58' W 013°32'0 0.0
2017-Sep-16 12:00N 28°58' W 013°32'0 0.0
2017-Sep-16 11:30N 28°58' W 013°32'0 0.0
2017-Sep-16 11:00N 28°58' W 013°32'0 0.0
2017-Sep-16 10:29N 28°58' W 013°32'0 0.0
2017-Sep-16 09:55N 28°58' W 013°32'0 0.0
2017-Sep-16 09:29N 28°58' W 013°32'0 0.0
2017-Sep-16 08:59N 28°58' W 013°32'0 0.0
2017-Sep-16 08:30N 28°58' W 013°32'0 0.0
2017-Sep-16 08:00N 28°58' W 013°32'0 0.0
2017-Sep-16 07:30N 28°58' W 013°32'0 0.0
2017-Sep-16 07:00N 28°58' W 013°32'0 0.0
2017-Sep-16 06:30N 28°58' W 013°32'0 0.0
2017-Sep-16 06:00N 28°58' W 013°32'0 0.0
2017-Sep-16 05:30N 28°58' W 013°32'0 0.0
2017-Sep-16 05:00N 28°58' W 013°32'0 0.0
2017-Sep-16 04:30N 28°58' W 013°32'0 0.0
2017-Sep-16 04:00N 28°58' W 013°32'0 0.0
2017-Sep-16 03:30N 28°58' W 013°32'0 0.0
2017-Sep-16 03:00N 28°58' W 013°32'0 0.0
2017-Sep-16 02:30N 28°58' W 013°32'0 0.0
2017-Sep-16 01:58N 28°58' W 013°32'0 0.0
2017-Sep-16 01:30N 28°58' W 013°32'0 0.0
2017-Sep-16 01:00N 28°58' W 013°32'0 0.0
2017-Sep-16 00:30N 28°58' W 013°32'0 0.0
2017-Sep-16 00:00N 28°58' W 013°32'0 0.0
2017-Sep-15 23:30N 28°58' W 013°32'0 0.0
2017-Sep-15 23:00N 28°58' W 013°32'0 0.0
2017-Sep-15 22:30N 28°58' W 013°32'0 0.0
2017-Sep-15 22:00N 28°58' W 013°32'1 1.7
2017-Sep-15 21:30N 28°57' W 013°32'2 4.2
2017-Sep-15 21:00N 28°55' W 013°32'1 1.3
2017-Sep-15 20:30N 28°55' W 013°32'3 5.9
2017-Sep-15 20:00N 28°53' W 013°35'611.5
2017-Sep-15 19:30N 28°48' W 013°38'611.5
2017-Sep-15 19:00N 28°43' W 013°41'611.7
2017-Sep-15 18:30N 28°38' W 013°45'612.0
2017-Sep-15 18:00N 28°32' W 013°48'4 7.5
2017-Sep-15 17:29N 28°30' W 013°51'0 0.0
2017-Sep-15 17:00N 28°30' W 013°51'0 0.0
2017-Sep-15 16:23N 28°30' W 013°51'0 0.0
2017-Sep-15 15:54N 28°30' W 013°51'0 0.0
2017-Sep-15 15:30N 28°30' W 013°51'0 0.0
2017-Sep-15 14:59N 28°30' W 013°51'0 0.0
2017-Sep-15 14:30N 28°30' W 013°51'0 0.0
2017-Sep-15 13:45N 28°30' W 013°51'0 0.0
2017-Sep-15 13:20N 28°30' W 013°51'0 0.0
2017-Sep-15 12:59N 28°30' W 013°51'0 0.0
2017-Sep-15 12:30N 28°30' W 013°51'0 0.0
2017-Sep-15 12:00N 28°30' W 013°51'0 0.0
2017-Sep-15 11:30N 28°30' W 013°51'0 0.0
2017-Sep-15 11:00N 28°30' W 013°51'0 0.0
2017-Sep-15 10:30N 28°30' W 013°51'0 0.0
2017-Sep-15 09:59N 28°30' W 013°51'0 0.0
2017-Sep-15 09:30N 28°30' W 013°51'0 0.0
2017-Sep-15 09:00N 28°30' W 013°51'0 0.0
2017-Sep-15 08:30N 28°30' W 013°51'0 0.0
2017-Sep-15 07:58N 28°30' W 013°51'0 0.0
2017-Sep-15 07:30N 28°30' W 013°51'0 0.0
2017-Sep-15 06:53N 28°30' W 013°51'0 0.0
2017-Sep-15 06:30N 28°30' W 013°51'1 1.8
2017-Sep-15 06:00N 28°29' W 013°51'3 6.1
2017-Sep-15 05:30N 28°26' W 013°49'4 8.3
2017-Sep-15 05:00N 28°22' W 013°49'5 9.2
2017-Sep-15 04:30N 28°18' W 013°50'5 9.2
2017-Sep-15 04:00N 28°13' W 013°51'510.8
2017-Sep-15 03:30N 28°09' W 013°55'611.8
2017-Sep-15 03:00N 28°07' W 014°01'611.7
2017-Sep-15 02:30N 28°04' W 014°07'612.0
2017-Sep-15 02:00N 28°02' W 014°13'612.1
2017-Sep-15 01:30N 27°59' W 014°19'611.9
2017-Sep-15 01:00N 27°60' W 014°26'611.7
2017-Sep-15 00:30N 28°00' W 014°33'612.1
2017-Sep-15 00:00N 28°01' W 014°40'611.9
2017-Sep-14 23:30N 28°01' W 014°46'612.1
2017-Sep-14 23:00N 28°02' W 014°53'612.4
2017-Sep-14 22:30N 28°03' W 015°00'612.4
2017-Sep-14 22:00N 28°04' W 015°07'612.5
2017-Sep-14 21:30N 28°05' W 015°14'612.6
2017-Sep-14 21:00N 28°06' W 015°21'4 7.7
2017-Sep-14 20:30N 28°09' W 015°25'0 0.6
2017-Sep-14 20:00N 28°09' W 015°25'0 0.0
2017-Sep-14 19:30N 28°09' W 015°25'0 0.0
2017-Sep-14 19:00N 28°09' W 015°25'0 0.0
2017-Sep-14 18:30N 28°09' W 015°25'0 0.0
2017-Sep-14 18:00N 28°09' W 015°25'0 0.0
2017-Sep-14 17:30N 28°09' W 015°25'0 0.0
2017-Sep-14 17:00N 28°09' W 015°25'0 0.0
2017-Sep-14 16:30N 28°09' W 015°25'0 0.0
2017-Sep-14 16:00N 28°09' W 015°25'0 0.0
2017-Sep-14 15:30N 28°09' W 015°25'0 0.0
2017-Sep-14 15:00N 28°09' W 015°25'0 0.0
2017-Sep-14 14:30N 28°09' W 015°25'0 0.0
2017-Sep-14 14:00N 28°09' W 015°25'0 0.0
2017-Sep-14 13:30N 28°09' W 015°25'0 0.0
2017-Sep-14 13:00N 28°09' W 015°25'0 0.0
2017-Sep-14 12:30N 28°09' W 015°25'0 0.0
2017-Sep-14 12:00N 28°09' W 015°25'0 0.0
2017-Sep-14 11:30N 28°09' W 015°25'0 0.0
2017-Sep-14 11:00N 28°09' W 015°25'0 0.0
2017-Sep-14 10:31N 28°09' W 015°25'0 0.0
2017-Sep-14 10:00N 28°09' W 015°25'0 0.0
2017-Sep-14 09:30N 28°09' W 015°25'0 0.0
2017-Sep-14 09:00N 28°09' W 015°25'0 0.0
2017-Sep-14 08:30N 28°09' W 015°25'0 0.0
2017-Sep-14 08:00N 28°09' W 015°25'0 0.0
2017-Sep-14 07:30N 28°09' W 015°25'0 0.0
2017-Sep-14 07:00N 28°09' W 015°25'0 0.0
2017-Sep-14 06:30N 28°09' W 015°25'0 0.0
2017-Sep-14 06:00N 28°09' W 015°25'0 0.0
2017-Sep-14 05:30N 28°09' W 015°25'0 0.0
2017-Sep-14 05:00N 28°09' W 015°25'0 0.0
2017-Sep-14 04:30N 28°09' W 015°25'0 0.0
2017-Sep-14 04:00N 28°09' W 015°25'0 0.0
2017-Sep-14 03:30N 28°09' W 015°25'0 0.0
2017-Sep-14 03:00N 28°09' W 015°25'0 0.0
2017-Sep-14 02:30N 28°09' W 015°25'0 0.0
2017-Sep-14 02:00N 28°09' W 015°25'0 0.0
2017-Sep-14 01:30N 28°09' W 015°25'0 0.0
2017-Sep-14 01:00N 28°09' W 015°25'0 0.0
2017-Sep-14 00:30N 28°09' W 015°25'2 3.6
2017-Sep-14 00:00N 28°07' W 015°24'611.4
2017-Sep-13 23:31N 28°13' W 015°25'816.7
2017-Sep-13 23:01N 28°14' W 015°34'816.5
2017-Sep-13 22:31N 28°16' W 015°43'816.4
2017-Sep-13 22:00N 28°17' W 015°53'815.2
2017-Sep-13 21:30N 28°20' W 016°01'714.0
2017-Sep-13 20:59N 28°24' W 016°07'8 0.8
2017-Sep-13 10:48N 28°29' W 016°14'1 1.9
2017-Sep-13 10:29N 28°29' W 016°14'4 7.4
2017-Sep-13 09:59N 28°28' W 016°10'916.7
2017-Sep-13 09:28N 28°27' W 015°60'715.4
2017-Sep-13 09:00N 28°30' W 015°53'815.7
2017-Sep-13 08:30N 28°36' W 015°46'815.3
2017-Sep-13 08:00N 28°43' W 015°42'815.6
2017-Sep-13 07:30N 28°50' W 015°38'915.5
2017-Sep-13 06:56N 28°57' W 015°33'3615.4
2017-Sep-13 04:36N 29°29' W 015°14'215.6
2017-Sep-13 04:30N 29°31' W 015°13'38615.8
2017-Sep-12 04:06N 35°12' W 011°39'216.0
2017-Sep-12 04:00N 35°13' W 011°38'815.7
2017-Sep-12 03:31N 35°20' W 011°34'815.7
2017-Sep-12 02:58N 35°28' W 011°29'716.0
2017-Sep-12 02:30N 35°34' W 011°25'  

Dump ship's entire track history